Terminal Aerodrome Forecast
Issued by NWS Charleston, WV

Current Version | Previous Version | Graphics & Text | Print | Product List | Glossary On
Versions: 1 2 3 4 5 6 7 8 9 10 11 12 13 14 15 16 17 18 19 20 21 22 23
000
FTUS41 KRLX 250300 AAA
TAFCRW
TAF AMD
KCRW 250304Z 2503/2524 27011G18KT P6SM SCT040
     FM250500 27011KT P6SM SCT040
     FM251300 26008KT P6SM FEW120
     FM251800 27008G14KT P6SM SCT040
     FM252200 28005KT P6SM SCT200=

USA.gov is the U.S. government's official web portal to all federal, state and local government web resources and services.